Rockford, Washington
Current Conditions -  °F | °C
As of 6:53 PM on Wednesday 22 Oct 2014 (Local Time) from KSFF Reporting Station
Light Rain Light Rain  
Wind Chill: 52°   Ceiling: 7000
Heat Index: 52°   Visibility: 10mi
Dew Point: 50°   Wind: 0mph
Humidity: 93%   Direction: NA
Pressure: 29.8"   Gusts: NA
Location:  47.45°N, 117.13°W
Report Text: KSFF 230153Z 00000KT 10SM -RA OVC070 11/10 A2980 RMK AO2 SLP092 P0004 T01110100
Loading
Personal Weather Stations






























Interactive Weather Map
Tropical Storm Tracking
New forecast layout! Learn more

10-Day Weather Forecast

Advertisements
Track Severe Weather on mobile